createdAt,value
2023-03-05T00:00:31.216Z,87.63
2023-03-05T00:03:04.027Z,87.92
2023-03-05T00:05:38.310Z,88.39
2023-03-05T00:08:11.352Z,88.98
2023-03-05T00:10:44.147Z,89.02
2023-03-05T00:13:16.967Z,88.71
2023-03-05T00:15:49.755Z,88.99
2023-03-05T00:18:23.752Z,89.19
2023-03-05T00:20:57.955Z,88.85
2023-03-05T00:23:30.765Z,88.61
2023-03-05T00:26:05.128Z,89.58
2023-03-05T00:28:38.031Z,89.27
2023-03-05T00:31:11.050Z,89.46
2023-03-05T00:33:44.154Z,89.71
2023-03-05T00:36:18.447Z,90.10
2023-03-05T00:38:51.568Z,89.60
2023-03-05T00:41:24.402Z,89.97
2023-03-05T00:43:57.914Z,90.16
2023-03-05T00:46:30.871Z,89.73
2023-03-05T00:49:04.224Z,90.16
2023-03-05T00:51:38.579Z,90.00
2023-03-05T00:54:11.447Z,90.19
2023-03-05T00:56:44.851Z,90.73
2023-03-05T00:59:17.722Z,90.54
2023-03-05T01:01:51.762Z,90.08
2023-03-05T01:04:24.680Z,90.22
2023-03-05T01:06:58.978Z,90.20
2023-03-05T01:09:32.208Z,89.81
2023-03-05T01:12:05.781Z,90.97
2023-03-05T01:14:38.746Z,90.69
2023-03-05T01:17:11.763Z,90.41
2023-03-05T01:19:45.049Z,89.94
2023-03-05T01:22:19.412Z,90.38
2023-03-05T01:24:52.411Z,89.94
2023-03-05T01:27:25.303Z,89.57
2023-03-05T01:29:58.456Z,90.37
2023-03-05T01:32:31.357Z,90.21
2023-03-05T01:35:06.575Z,89.74
2023-03-05T01:37:41.108Z,89.96
2023-03-05T01:40:16.363Z,89.82
2023-03-05T01:42:50.754Z,89.94
2023-03-05T01:45:23.843Z,90.03
2023-03-05T01:47:56.678Z,90.16
2023-03-05T01:50:30.063Z,89.77
2023-03-05T01:53:07.179Z,89.70
2023-03-05T01:55:40.068Z,89.78
2023-03-05T01:58:14.776Z,89.66
2023-03-05T02:00:49.849Z,89.56
2023-03-05T02:03:24.946Z,90.04
2023-03-05T02:05:57.919Z,89.96
2023-03-05T02:08:32.324Z,89.45
2023-03-05T02:11:05.794Z,90.23
2023-03-05T02:13:40.663Z,90.04
2023-03-05T02:16:13.675Z,89.66
2023-03-05T02:18:46.537Z,90.23
2023-03-05T02:21:36.603Z,90.07
2023-03-05T02:24:13.036Z,90.61
2023-03-05T02:26:48.396Z,90.29
2023-03-05T02:29:22.408Z,89.93
2023-03-05T02:31:55.622Z,90.48
2023-03-05T02:34:28.706Z,90.60
2023-03-05T02:37:05.550Z,91.06
2023-03-05T02:39:39.992Z,90.90
2023-03-05T02:42:13.054Z,91.14
2023-03-05T02:44:46.597Z,90.95
2023-03-05T02:47:19.465Z,90.79
2023-03-05T02:49:52.614Z,90.31
2023-03-05T02:52:27.148Z,90.28
2023-03-05T02:55:00.016Z,90.69
2023-03-05T02:57:35.228Z,91.51
2023-03-05T03:00:09.528Z,91.08
2023-03-05T03:02:42.471Z,92.10
2023-03-05T03:05:15.363Z,91.58
2023-03-05T03:07:49.573Z,92.69
2023-03-05T03:10:22.474Z,94.07
2023-03-05T03:12:55.648Z,94.51
2023-03-05T03:15:29.321Z,94.29
2023-03-05T03:18:02.243Z,94.29
2023-03-05T03:20:35.641Z,93.94
2023-03-05T03:23:09.767Z,93.96
2023-03-05T03:25:42.664Z,93.82
2023-03-05T03:28:15.449Z,94.70
2023-03-05T03:30:48.247Z,94.03
2023-03-05T03:33:21.001Z,94.45
2023-03-05T03:35:53.976Z,94.50
2023-03-05T03:38:28.615Z,94.38
2023-03-05T03:41:01.396Z,94.44
2023-03-05T03:43:34.303Z,94.99
2023-03-05T03:46:07.793Z,95.21
2023-03-05T03:48:40.831Z,95.94
2023-03-05T03:51:13.664Z,95.37
2023-03-05T03:53:47.971Z,94.87
2023-03-05T03:56:20.802Z,95.78
2023-03-05T03:58:54.751Z,96.40
2023-03-05T04:01:27.904Z,96.65
2023-03-05T04:04:01.285Z,96.39
2023-03-05T04:06:34.903Z,95.43
2023-03-05T04:09:09.735Z,96.09
2023-03-05T04:11:42.529Z,96.48
2023-03-05T04:14:15.399Z,97.05
2023-03-05T04:16:48.162Z,96.08
2023-03-05T04:19:22.067Z,96.25
2023-03-05T04:21:54.905Z,96.00
2023-03-05T04:24:29.223Z,96.23
2023-03-05T04:27:02.062Z,96.52
2023-03-05T04:29:35.510Z,96.28
2023-03-05T04:32:08.670Z,96.63
2023-03-05T04:34:41.509Z,96.87
2023-03-05T04:37:14.315Z,96.95
2023-03-05T04:39:48.492Z,97.21
2023-03-05T04:42:21.541Z,97.46
2023-03-05T04:44:54.522Z,97.32
2023-03-05T04:47:27.417Z,96.34
2023-03-05T04:50:00.337Z,96.28
2023-03-05T04:52:33.160Z,95.74
2023-03-05T04:55:08.645Z,96.47
2023-03-05T04:57:42.020Z,96.62
2023-03-05T05:00:16.830Z,97.00
2023-03-05T05:02:51.376Z,97.99
2023-03-05T05:05:26.360Z,97.76
2023-03-05T05:07:59.335Z,98.07
2023-03-05T05:10:33.620Z,98.21
2023-03-05T05:13:06.589Z,98.24
2023-03-05T05:15:41.752Z,97.44
2023-03-05T05:18:14.559Z,97.89
2023-03-05T05:20:47.788Z,97.13
2023-03-05T05:23:20.919Z,97.63
2023-03-05T05:25:58.905Z,97.72
2023-03-05T05:28:31.679Z,98.63
2023-03-05T05:31:08.227Z,98.47
2023-03-05T05:33:41.296Z,98.67
2023-03-05T05:36:16.539Z,98.26
2023-03-05T05:38:49.687Z,98.00
2023-03-05T05:41:24.158Z,98.28
2023-03-05T05:43:57.386Z,99.04
2023-03-05T05:46:30.562Z,98.63
2023-03-05T05:49:03.621Z,98.76
2023-03-05T05:51:36.512Z,99.14
2023-03-05T05:54:09.520Z,98.86
2023-03-05T05:56:43.756Z,99.33
2023-03-05T05:59:16.588Z,99.42
2023-03-05T06:01:49.518Z,99.44
2023-03-05T06:04:23.564Z,99.80
2023-03-05T06:06:56.566Z,99.23
2023-03-05T06:09:29.692Z,100.00
2023-03-05T06:12:04.167Z,100.00
2023-03-05T06:14:37.190Z,100.00
2023-03-05T06:17:12.929Z,100.00
2023-03-05T06:19:47.672Z,100.00
2023-03-05T06:22:20.496Z,100.00
2023-03-05T06:24:53.353Z,100.00
2023-03-05T06:27:27.542Z,100.00
2023-03-05T06:30:00.691Z,100.00
2023-03-05T06:32:33.528Z,100.00
2023-03-05T06:35:07.424Z,100.00
2023-03-05T06:37:40.458Z,100.00
2023-03-05T06:40:14.539Z,100.00
2023-03-05T06:42:48.765Z,100.00
2023-03-05T06:45:24.758Z,100.00
2023-03-05T06:47:57.747Z,100.00
2023-03-05T06:50:30.639Z,100.00
2023-03-05T06:53:03.551Z,100.00
2023-03-05T06:55:39.592Z,100.00
2023-03-05T06:58:13.884Z,100.00
2023-03-05T07:00:47.119Z,100.00
2023-03-05T07:03:19.988Z,100.00
2023-03-05T07:05:53.226Z,100.00
2023-03-05T07:08:26.528Z,100.00
2023-03-05T07:11:00.300Z,100.00
2023-03-05T07:13:34.668Z,100.00
2023-03-05T07:16:08.815Z,100.00
2023-03-05T07:18:44.744Z,100.00
2023-03-05T07:21:20.738Z,100.00
2023-03-05T07:23:55.242Z,100.00
2023-03-05T07:26:28.656Z,100.00
2023-03-05T07:29:03.593Z,99.62
2023-03-05T07:31:36.946Z,100.00
2023-03-05T07:34:11.256Z,100.00
2023-03-05T07:36:44.105Z,100.00
2023-03-05T07:39:18.577Z,99.58
2023-03-05T07:41:52.534Z,99.38
2023-03-05T07:44:34.706Z,99.40
2023-03-05T07:47:07.717Z,99.02
2023-03-05T07:49:41.664Z,98.47
2023-03-05T07:52:14.471Z,98.32
2023-03-05T07:54:47.269Z,99.57
2023-03-05T07:57:20.378Z,98.87
2023-03-05T07:59:57.097Z,99.34
2023-03-05T08:02:30.015Z,99.69
2023-03-05T08:05:02.917Z,100.00
2023-03-05T08:07:35.762Z,100.00
2023-03-05T08:10:10.299Z,99.88
2023-03-05T08:12:43.283Z,99.55
2023-03-05T08:15:18.046Z,99.99
2023-03-05T08:17:50.893Z,99.01
2023-03-05T08:20:23.760Z,98.58
2023-03-05T08:22:56.833Z,98.26
2023-03-05T08:25:29.650Z,98.06
2023-03-05T08:28:02.491Z,98.37
2023-03-05T08:30:41.792Z,98.40
2023-03-05T08:33:17.369Z,97.70
2023-03-05T08:35:50.231Z,98.05
2023-03-05T08:38:24.327Z,97.57
2023-03-05T08:40:57.169Z,96.80
2023-03-05T08:43:31.062Z,96.44
2023-03-05T08:46:05.641Z,95.99
2023-03-05T08:48:38.682Z,95.09
2023-03-05T08:51:14.624Z,94.61
2023-03-05T08:53:47.994Z,93.43
2023-03-05T08:56:20.895Z,94.75
2023-03-05T08:58:53.685Z,94.89
2023-03-05T09:01:28.065Z,94.74
2023-03-05T09:04:01.856Z,94.01
2023-03-05T09:06:39.163Z,94.53
2023-03-05T09:09:13.587Z,94.39
2023-03-05T09:11:49.537Z,92.75
2023-03-05T09:14:23.409Z,94.28
2023-03-05T09:16:57.758Z,93.20
2023-03-05T09:19:35.692Z,93.27
2023-03-05T09:22:08.511Z,92.81
2023-03-05T09:24:42.011Z,91.96
2023-03-05T09:27:14.852Z,93.38
2023-03-05T09:29:48.073Z,91.78
2023-03-05T09:32:22.389Z,91.74
2023-03-05T09:34:55.949Z,90.92
2023-03-05T09:37:29.283Z,91.63
2023-03-05T09:40:02.976Z,89.21
2023-03-05T09:42:59.709Z,91.10
2023-03-05T09:45:40.214Z,88.67
2023-03-05T09:48:20.638Z,88.80
2023-03-05T09:51:03.598Z,87.12
2023-03-05T09:53:44.947Z,86.09
2023-03-05T09:56:21.854Z,86.14
2023-03-05T09:58:59.183Z,87.00
2023-03-05T10:01:38.839Z,86.33
2023-03-05T10:04:17.306Z,84.77
2023-03-05T10:06:54.067Z,85.24
2023-03-05T10:09:44.100Z,84.38
2023-03-05T10:12:27.593Z,81.93
2023-03-05T10:15:03.208Z,81.31
2023-03-05T10:17:59.655Z,80.26
2023-03-05T10:20:45.494Z,80.35
2023-03-05T10:23:29.215Z,80.44
2023-03-05T10:26:14.624Z,78.50
2023-03-05T10:28:51.816Z,79.23
2023-03-05T10:31:52.511Z,79.64
2023-03-05T10:34:57.451Z,78.36
2023-03-05T10:37:50.923Z,78.27
2023-03-05T10:40:32.561Z,78.72
2023-03-05T10:43:15.039Z,78.14
2023-03-05T10:45:50.792Z,77.33
2023-03-05T10:48:32.590Z,77.40
2023-03-05T10:51:14.298Z,76.89
2023-03-05T10:53:56.198Z,76.40
2023-03-05T10:56:31.767Z,77.06
2023-03-05T10:59:04.611Z,77.50
2023-03-05T11:01:37.880Z,77.89
2023-03-05T11:04:28.644Z,75.26
2023-03-05T11:07:06.585Z,74.85
2023-03-05T11:09:41.877Z,73.29
2023-03-05T11:12:17.168Z,69.50
2023-03-05T11:15:05.547Z,69.00
2023-03-05T11:17:43.142Z,70.67
2023-03-05T11:20:32.340Z,70.87
2023-03-05T11:23:10.837Z,72.07
2023-03-05T11:26:17.899Z,69.05
2023-03-05T11:28:59.102Z,67.85
2023-03-05T11:31:33.429Z,67.46
2023-03-05T11:34:08.489Z,64.55
2023-03-05T11:36:43.108Z,64.73
2023-03-05T11:39:18.319Z,62.32
2023-03-05T11:41:58.914Z,62.25
2023-03-05T11:44:35.940Z,61.98
2023-03-05T11:47:22.398Z,60.33
2023-03-05T11:50:02.043Z,63.84
2023-03-05T11:52:42.784Z,62.53
2023-03-05T11:55:18.012Z,61.67
2023-03-05T11:58:12.050Z,61.59
2023-03-05T12:00:48.606Z,58.08
2023-03-05T12:03:25.548Z,59.31
2023-03-05T12:06:06.405Z,59.21
2023-03-05T12:08:47.214Z,60.40
2023-03-05T12:11:26.176Z,59.82
2023-03-05T12:14:07.413Z,59.23
2023-03-05T12:16:43.213Z,59.00
2023-03-05T12:19:34.417Z,58.82
2023-03-05T12:22:18.389Z,58.84
2023-03-05T12:24:52.244Z,55.48
2023-03-05T12:27:36.692Z,55.30
2023-03-05T12:30:52.604Z,54.77
2023-03-05T12:33:36.348Z,57.52
2023-03-05T12:36:34.847Z,57.08
2023-03-05T12:39:47.457Z,56.45
2023-03-05T12:42:52.951Z,56.41
2023-03-05T12:45:34.700Z,56.42
2023-03-05T12:48:43.603Z,55.98
2023-03-05T12:51:32.589Z,56.79
2023-03-05T12:54:31.244Z,52.92
2023-03-05T12:57:07.344Z,53.94
2023-03-05T12:59:45.164Z,53.35
2023-03-05T13:02:29.575Z,52.52
2023-03-05T13:05:06.691Z,52.45
2023-03-05T13:07:39.622Z,53.98
2023-03-05T13:10:23.838Z,53.19
2023-03-05T13:12:59.426Z,54.60
2023-03-05T13:15:33.380Z,54.88
2023-03-05T13:18:08.517Z,53.78
2023-03-05T13:20:43.537Z,53.35
2023-03-05T13:23:21.505Z,53.10
2023-03-05T13:26:03.468Z,53.16
2023-03-05T13:28:37.412Z,53.06
2023-03-05T13:31:18.458Z,51.45
2023-03-05T13:33:54.185Z,53.69
2023-03-05T13:36:28.869Z,54.03
2023-03-05T13:39:03.876Z,53.05
2023-03-05T13:41:36.695Z,53.65
2023-03-05T13:44:21.796Z,54.83
2023-03-05T13:46:54.648Z,54.52
2023-03-05T13:49:29.318Z,53.52
2023-03-05T13:52:03.966Z,52.41
2023-03-05T13:54:39.253Z,53.35
2023-03-05T13:57:34.382Z,55.62
2023-03-05T14:00:08.968Z,53.29
2023-03-05T14:02:43.718Z,51.00
2023-03-05T14:05:17.701Z,52.43
2023-03-05T14:07:53.356Z,54.97
2023-03-05T14:10:34.504Z,52.82
2023-03-05T14:13:14.635Z,52.92
2023-03-05T14:16:05.755Z,51.89
2023-03-05T14:18:39.510Z,51.98
2023-03-05T14:21:13.352Z,54.74
2023-03-05T14:23:49.348Z,54.79
2023-03-05T14:26:31.067Z,53.87
2023-03-05T14:29:14.396Z,54.05
2023-03-05T14:31:51.196Z,52.80
2023-03-05T14:34:30.327Z,51.12
2023-03-05T14:37:05.476Z,49.82
2023-03-05T14:39:46.900Z,54.07
2023-03-05T14:42:39.340Z,53.27
2023-03-05T14:45:15.291Z,53.90
2023-03-05T14:47:48.997Z,55.97
2023-03-05T14:50:23.948Z,54.16
2023-03-05T14:52:58.962Z,55.12
2023-03-05T14:55:33.775Z,53.68
2023-03-05T14:58:11.724Z,58.14
2023-03-05T15:00:44.969Z,55.91
2023-03-05T15:03:18.602Z,53.43
2023-03-05T15:05:53.458Z,55.80
2023-03-05T15:08:28.537Z,57.83
2023-03-05T15:11:03.811Z,55.28
2023-03-05T15:13:37.510Z,55.96
2023-03-05T15:16:16.266Z,56.54
2023-03-05T15:18:49.805Z,56.41
2023-03-05T15:21:22.706Z,57.89
2023-03-05T15:23:55.500Z,58.20
2023-03-05T15:26:29.733Z,57.88
2023-03-05T15:29:02.545Z,57.33
2023-03-05T15:31:38.759Z,58.37
2023-03-05T15:34:12.178Z,58.20
2023-03-05T15:36:45.003Z,59.75
2023-03-05T15:39:17.940Z,60.43
2023-03-05T15:41:55.529Z,61.33
2023-03-05T15:44:28.820Z,60.07
2023-03-05T15:47:01.716Z,61.28
2023-03-05T15:49:34.918Z,62.32
2023-03-05T15:52:08.144Z,61.03
2023-03-05T15:54:41.207Z,61.85
2023-03-05T15:57:15.746Z,60.94
2023-03-05T15:59:50.997Z,61.26
2023-03-05T16:02:27.313Z,63.52
2023-03-05T16:05:00.180Z,61.01
2023-03-05T16:07:37.397Z,61.65
2023-03-05T16:10:14.379Z,62.47
2023-03-05T16:12:51.360Z,63.46
2023-03-05T16:15:25.473Z,63.41
2023-03-05T16:18:01.487Z,62.68
2023-03-05T16:20:36.184Z,62.48
2023-03-05T16:23:09.513Z,61.72
2023-03-05T16:25:45.003Z,63.48
2023-03-05T16:28:19.312Z,63.22
2023-03-05T16:30:55.289Z,65.36
2023-03-05T16:33:28.185Z,64.22
2023-03-05T16:36:24.780Z,64.17
2023-03-05T16:38:59.986Z,64.90
2023-03-05T16:41:34.635Z,63.96
2023-03-05T16:44:09.248Z,64.20
2023-03-05T16:46:43.872Z,65.62
2023-03-05T16:49:17.691Z,64.55
2023-03-05T16:51:51.722Z,65.50
2023-03-05T16:54:24.604Z,65.81
2023-03-05T16:57:01.257Z,67.22
2023-03-05T16:59:35.472Z,65.20
2023-03-05T17:02:09.244Z,64.88
2023-03-05T17:04:42.575Z,62.66
2023-03-05T17:07:15.436Z,62.06
2023-03-05T17:09:50.323Z,62.62
2023-03-05T17:12:23.356Z,61.26
2023-03-05T17:14:57.545Z,60.14
2023-03-05T17:17:31.700Z,61.31
2023-03-05T17:20:04.949Z,61.57
2023-03-05T17:22:37.766Z,62.66
2023-03-05T17:25:11.462Z,64.22
2023-03-05T17:27:45.155Z,63.66
2023-03-05T17:30:19.712Z,63.37
2023-03-05T17:32:53.574Z,63.36
2023-03-05T17:35:28.613Z,63.90
2023-03-05T17:38:03.253Z,64.26
2023-03-05T17:40:36.567Z,64.10
2023-03-05T17:43:09.705Z,64.46
2023-03-05T17:45:43.963Z,64.90
2023-03-05T17:48:17.266Z,64.76
2023-03-05T17:50:50.026Z,65.05
2023-03-05T17:53:23.696Z,65.16
2023-03-05T17:55:56.518Z,65.32
2023-03-05T17:58:29.476Z,64.79
2023-03-05T18:01:04.676Z,66.38
2023-03-05T18:03:38.324Z,65.60
2023-03-05T18:06:11.266Z,65.41
2023-03-05T18:08:46.418Z,65.32
2023-03-05T18:11:20.070Z,66.37
2023-03-05T18:13:52.985Z,67.29
2023-03-05T18:16:27.433Z,67.65
2023-03-05T18:19:00.906Z,65.29
2023-03-05T18:21:33.716Z,66.13
2023-03-05T18:24:07.179Z,66.64
2023-03-05T18:26:40.246Z,66.46
2023-03-05T18:29:13.051Z,66.23
2023-03-05T18:31:47.295Z,65.94
2023-03-05T18:34:21.151Z,66.81
2023-03-05T18:36:54.613Z,66.82
2023-03-05T18:39:29.104Z,66.60
2023-03-05T18:42:02.046Z,66.20
2023-03-05T18:44:34.977Z,66.37
2023-03-05T18:47:09.265Z,67.05
2023-03-05T18:49:42.519Z,66.89
2023-03-05T18:52:15.456Z,68.12
2023-03-05T18:54:51.079Z,67.47
2023-03-05T18:57:23.920Z,66.71
2023-03-05T18:59:57.013Z,67.44
2023-03-05T19:02:31.226Z,66.87
2023-03-05T19:05:04.333Z,68.07
2023-03-05T19:07:38.064Z,67.48
2023-03-05T19:10:14.561Z,67.86
2023-03-05T19:13:17.976Z,68.55
2023-03-05T19:16:09.636Z,68.40
2023-03-05T19:19:13.730Z,69.32
2023-03-05T19:21:48.412Z,69.84
2023-03-05T19:24:22.042Z,68.96
2023-03-05T19:26:55.889Z,68.51
2023-03-05T19:29:32.676Z,68.41
2023-03-05T19:32:06.451Z,69.60
2023-03-05T19:34:41.470Z,69.73
2023-03-05T19:37:14.436Z,69.40
2023-03-05T19:39:47.360Z,70.10
2023-03-05T19:42:20.501Z,70.56
2023-03-05T19:44:54.135Z,70.62
2023-03-05T19:47:26.928Z,71.42
2023-03-05T19:50:01.395Z,71.01
2023-03-05T19:52:34.378Z,71.16
2023-03-05T19:55:08.578Z,71.39
2023-03-05T19:57:41.598Z,71.36
2023-03-05T20:00:14.832Z,71.86
2023-03-05T20:02:48.523Z,72.22
2023-03-05T20:05:25.499Z,72.03
2023-03-05T20:07:59.063Z,71.98
2023-03-05T20:10:32.157Z,72.54
2023-03-05T20:13:05.013Z,72.42
2023-03-05T20:15:37.970Z,72.97
2023-03-05T20:18:10.856Z,72.63
2023-03-05T20:20:45.090Z,72.20
2023-03-05T20:23:17.879Z,72.43
2023-03-05T20:25:50.747Z,72.89
2023-03-05T20:28:26.015Z,72.66
2023-03-05T20:31:01.597Z,72.77
2023-03-05T20:33:34.708Z,73.87
2023-03-05T20:36:09.439Z,73.66
2023-03-05T20:38:44.226Z,73.81
2023-03-05T20:41:20.640Z,74.27
2023-03-05T20:43:53.417Z,74.14
2023-03-05T20:46:28.902Z,74.97
2023-03-05T20:49:03.173Z,74.39
2023-03-05T20:51:39.250Z,74.55
2023-03-05T20:54:14.561Z,74.62
2023-03-05T20:56:47.660Z,75.08
2023-03-05T20:59:23.126Z,75.52
2023-03-05T21:01:55.926Z,75.19
2023-03-05T21:04:28.896Z,74.74
2023-03-05T21:07:03.980Z,75.71
2023-03-05T21:09:37.045Z,75.71
2023-03-05T21:12:10.043Z,75.65
2023-03-05T21:14:42.872Z,75.95
2023-03-05T21:17:17.715Z,76.46
2023-03-05T21:19:50.519Z,76.32
2023-03-05T21:22:24.696Z,76.72
2023-03-05T21:25:22.832Z,75.93
2023-03-05T21:27:58.861Z,76.55
2023-03-05T21:30:34.454Z,76.70
2023-03-05T21:33:09.402Z,76.87
2023-03-05T21:35:42.543Z,76.72
2023-03-05T21:38:16.788Z,76.92
2023-03-05T21:40:50.674Z,76.80
2023-03-05T21:43:25.624Z,76.87
2023-03-05T21:45:58.753Z,77.64
2023-03-05T21:48:32.456Z,77.33
2023-03-05T21:51:57.656Z,78.07
2023-03-05T21:54:31.933Z,78.18
2023-03-05T21:57:05.512Z,78.12
2023-03-05T21:59:40.959Z,78.49
2023-03-05T22:02:15.016Z,78.23
2023-03-05T22:04:51.567Z,78.54
2023-03-05T22:07:24.468Z,78.49
2023-03-05T22:09:58.851Z,78.83
2023-03-05T22:13:12.357Z,78.96
2023-03-05T22:15:46.800Z,79.14
2023-03-05T22:18:21.918Z,78.60
2023-03-05T22:20:55.414Z,79.31
2023-03-05T22:23:31.296Z,78.90
2023-03-05T22:26:07.949Z,78.61
2023-03-05T22:28:42.355Z,78.91
2023-03-05T22:31:21.649Z,79.21
2023-03-05T22:33:54.972Z,79.50
2023-03-05T22:36:27.877Z,79.67
2023-03-05T22:39:00.721Z,79.35
2023-03-05T22:41:34.887Z,79.49
2023-03-05T22:44:07.700Z,79.63
2023-03-05T22:46:40.513Z,79.58
2023-03-05T22:49:13.683Z,79.71
2023-03-05T22:51:46.509Z,80.29
2023-03-05T22:54:19.285Z,80.09
2023-03-05T22:56:54.089Z,79.98
2023-03-05T22:59:26.845Z,80.08
2023-03-05T23:01:59.685Z,81.26
2023-03-05T23:04:49.869Z,81.68
2023-03-05T23:07:25.264Z,81.71
2023-03-05T23:09:59.607Z,82.53
2023-03-05T23:12:37.100Z,83.79
2023-03-05T23:15:12.688Z,84.93
2023-03-05T23:17:45.659Z,84.27
2023-03-05T23:20:20.878Z,85.20
2023-03-05T23:22:55.930Z,85.16
2023-03-05T23:25:31.152Z,85.68
2023-03-05T23:28:05.506Z,85.43
2023-03-05T23:30:39.439Z,85.42
2023-03-05T23:33:15.757Z,85.50
2023-03-05T23:35:52.002Z,84.78
2023-03-05T23:38:26.534Z,85.45
2023-03-05T23:41:02.738Z,87.18
2023-03-05T23:43:37.069Z,87.15
2023-03-05T23:46:12.193Z,87.88
2023-03-05T23:48:45.024Z,88.56
2023-03-05T23:51:18.026Z,88.44
2023-03-05T23:53:50.808Z,89.19
2023-03-05T23:56:23.580Z,88.82
2023-03-05T23:59:00.412Z,90.02
